sensor_id;sensor_type;location;lat;lon;timestamp;temperature;humidity
16408;DHT22;8313;49.894;8.084;2023-03-25T00:01:00;9.60;99.90
16408;DHT22;8313;49.894;8.084;2023-03-25T00:03:29;9.50;99.90
16408;DHT22;8313;49.894;8.084;2023-03-25T00:05:56;9.50;99.90
16408;DHT22;8313;49.894;8.084;2023-03-25T00:08:23;9.40;99.90
16408;DHT22;8313;49.894;8.084;2023-03-25T00:10:53;9.40;99.90
16408;DHT22;8313;49.894;8.084;2023-03-25T00:13:20;9.50;99.90
16408;DHT22;8313;49.894;8.084;2023-03-25T00:15:47;9.50;99.90
16408;DHT22;8313;49.894;8.084;2023-03-25T00:18:13;9.50;99.90
16408;DHT22;8313;49.894;8.084;2023-03-25T00:20:42;9.40;99.90
16408;DHT22;8313;49.894;8.084;2023-03-25T00:23:11;9.20;99.90
16408;DHT22;8313;49.894;8.084;2023-03-25T00:25:37;9.10;99.90
16408;DHT22;8313;49.894;8.084;2023-03-25T00:28:03;9.10;99.90
16408;DHT22;8313;49.894;8.084;2023-03-25T00:30:29;9.00;99.90
16408;DHT22;8313;49.894;8.084;2023-03-25T00:32:54;9.10;99.90
16408;DHT22;8313;49.894;8.084;2023-03-25T00:35:22;9.00;99.90
16408;DHT22;8313;49.894;8.084;2023-03-25T00:37:50;9.10;99.90
16408;DHT22;8313;49.894;8.084;2023-03-25T00:40:31;9.00;99.90
16408;DHT22;8313;49.894;8.084;2023-03-25T00:43:01;9.10;99.90
16408;DHT22;8313;49.894;8.084;2023-03-25T00:45:27;8.90;99.90
16408;DHT22;8313;49.894;8.084;2023-03-25T00:47:52;9.00;99.90
16408;DHT22;8313;49.894;8.084;2023-03-25T00:50:19;9.00;99.90
16408;DHT22;8313;49.894;8.084;2023-03-25T00:52:46;9.00;99.90
16408;DHT22;8313;49.894;8.084;2023-03-25T00:55:12;9.00;99.90
16408;DHT22;8313;49.894;8.084;2023-03-25T00:57:38;8.90;99.90
16408;DHT22;8313;49.894;8.084;2023-03-25T01:00:05;8.90;99.90
16408;DHT22;8313;49.894;8.084;2023-03-25T01:02:32;8.90;99.90
16408;DHT22;8313;49.894;8.084;2023-03-25T01:04:58;8.90;99.90
16408;DHT22;8313;49.894;8.084;2023-03-25T01:07:24;8.90;99.90
16408;DHT22;8313;49.894;8.084;2023-03-25T01:09:50;8.90;99.90
16408;DHT22;8313;49.894;8.084;2023-03-25T01:12:16;8.80;99.90
16408;DHT22;8313;49.894;8.084;2023-03-25T01:14:43;8.90;99.90
16408;DHT22;8313;49.894;8.084;2023-03-25T01:17:09;9.20;99.90
16408;DHT22;8313;49.894;8.084;2023-03-25T01:19:35;9.20;99.90
16408;DHT22;8313;49.894;8.084;2023-03-25T01:22:01;9.30;99.90
16408;DHT22;8313;49.894;8.084;2023-03-25T01:24:26;9.20;99.90
16408;DHT22;8313;49.894;8.084;2023-03-25T01:26:52;9.40;99.90
16408;DHT22;8313;49.894;8.084;2023-03-25T01:29:19;9.50;99.90
16408;DHT22;8313;49.894;8.084;2023-03-25T01:31:45;9.60;99.90
16408;DHT22;8313;49.894;8.084;2023-03-25T01:34:11;9.40;99.90
16408;DHT22;8313;49.894;8.084;2023-03-25T01:36:37;9.50;99.90
16408;DHT22;8313;49.894;8.084;2023-03-25T01:39:06;9.50;99.90
16408;DHT22;8313;49.894;8.084;2023-03-25T01:41:33;9.60;99.90
16408;DHT22;8313;49.894;8.084;2023-03-25T01:46:50;9.40;99.90
16408;DHT22;8313;49.894;8.084;2023-03-25T01:49:20;9.40;99.90
16408;DHT22;8313;49.894;8.084;2023-03-25T01:51:51;9.30;99.90
16408;DHT22;8313;49.894;8.084;2023-03-25T01:54:18;9.20;99.90
16408;DHT22;8313;49.894;8.084;2023-03-25T01:56:46;9.30;99.90
16408;DHT22;8313;49.894;8.084;2023-03-25T01:59:14;9.40;99.90
16408;DHT22;8313;49.894;8.084;2023-03-25T02:01:47;9.50;99.90
16408;DHT22;8313;49.894;8.084;2023-03-25T02:04:18;9.50;99.90
16408;DHT22;8313;49.894;8.084;2023-03-25T02:06:50;9.40;99.90
16408;DHT22;8313;49.894;8.084;2023-03-25T02:09:21;9.40;99.90
16408;DHT22;8313;49.894;8.084;2023-03-25T02:11:48;9.40;99.90
16408;DHT22;8313;49.894;8.084;2023-03-25T02:14:21;9.40;99.90
16408;DHT22;8313;49.894;8.084;2023-03-25T02:16:52;9.40;99.90
16408;DHT22;8313;49.894;8.084;2023-03-25T02:25:50;9.10;99.90
16408;DHT22;8313;49.894;8.084;2023-03-25T02:39:44;8.90;99.90
16408;DHT22;8313;49.894;8.084;2023-03-25T02:42:23;8.90;99.90
16408;DHT22;8313;49.894;8.084;2023-03-25T02:47:40;8.90;99.90
16408;DHT22;8313;49.894;8.084;2023-03-25T02:50:16;8.90;99.90
16408;DHT22;8313;49.894;8.084;2023-03-25T02:52:48;9.00;99.90
16408;DHT22;8313;49.894;8.084;2023-03-25T02:55:17;8.90;99.90
16408;DHT22;8313;49.894;8.084;2023-03-25T02:57:46;8.90;99.90
16408;DHT22;8313;49.894;8.084;2023-03-25T03:00:15;9.00;99.90
16408;DHT22;8313;49.894;8.084;2023-03-25T03:02:52;9.10;99.90
16408;DHT22;8313;49.894;8.084;2023-03-25T03:11:04;9.00;99.90
16408;DHT22;8313;49.894;8.084;2023-03-25T03:16:47;9.00;99.90
16408;DHT22;8313;49.894;8.084;2023-03-25T03:24:48;9.20;99.90
16408;DHT22;8313;49.894;8.084;2023-03-25T03:27:53;9.20;99.90
16408;DHT22;8313;49.894;8.084;2023-03-25T03:33:29;9.00;99.90
16408;DHT22;8313;49.894;8.084;2023-03-25T03:36:03;9.10;99.90
16408;DHT22;8313;49.894;8.084;2023-03-25T03:38:38;8.90;99.90
16408;DHT22;8313;49.894;8.084;2023-03-25T03:41:08;8.70;99.90
16408;DHT22;8313;49.894;8.084;2023-03-25T03:43:46;8.70;99.90
16408;DHT22;8313;49.894;8.084;2023-03-25T03:49:14;8.60;99.90
16408;DHT22;8313;49.894;8.084;2023-03-25T03:51:52;8.70;99.90
16408;DHT22;8313;49.894;8.084;2023-03-25T03:54:24;8.50;99.90
16408;DHT22;8313;49.894;8.084;2023-03-25T03:59:56;8.50;99.90
16408;DHT22;8313;49.894;8.084;2023-03-25T04:02:29;8.40;99.90
16408;DHT22;8313;49.894;8.084;2023-03-25T04:04:59;8.40;99.90
16408;DHT22;8313;49.894;8.084;2023-03-25T04:07:56;8.50;99.90
16408;DHT22;8313;49.894;8.084;2023-03-25T04:10:37;8.40;99.90
16408;DHT22;8313;49.894;8.084;2023-03-25T04:13:08;8.40;99.90
16408;DHT22;8313;49.894;8.084;2023-03-25T04:15:35;8.40;99.90
16408;DHT22;8313;49.894;8.084;2023-03-25T04:18:01;8.40;99.90
16408;DHT22;8313;49.894;8.084;2023-03-25T04:20:31;8.40;99.90
16408;DHT22;8313;49.894;8.084;2023-03-25T04:22:59;8.50;99.90
16408;DHT22;8313;49.894;8.084;2023-03-25T04:25:25;8.40;99.90
16408;DHT22;8313;49.894;8.084;2023-03-25T04:27:51;8.30;99.90
16408;DHT22;8313;49.894;8.084;2023-03-25T04:30:24;8.30;99.90
16408;DHT22;8313;49.894;8.084;2023-03-25T04:32:51;8.30;99.90
16408;DHT22;8313;49.894;8.084;2023-03-25T04:35:17;8.40;99.90
16408;DHT22;8313;49.894;8.084;2023-03-25T04:37:44;8.40;99.90
16408;DHT22;8313;49.894;8.084;2023-03-25T04:40:11;8.40;99.90
16408;DHT22;8313;49.894;8.084;2023-03-25T04:42:41;8.40;99.90
16408;DHT22;8313;49.894;8.084;2023-03-25T04:45:08;8.40;99.90
16408;DHT22;8313;49.894;8.084;2023-03-25T04:47:39;8.40;99.90
16408;DHT22;8313;49.894;8.084;2023-03-25T04:50:29;8.40;99.90
16408;DHT22;8313;49.894;8.084;2023-03-25T04:52:56;8.50;99.90
16408;DHT22;8313;49.894;8.084;2023-03-25T04:55:23;8.60;99.90
16408;DHT22;8313;49.894;8.084;2023-03-25T04:57:51;8.50;99.90
16408;DHT22;8313;49.894;8.084;2023-03-25T05:00:20;8.50;99.90
16408;DHT22;8313;49.894;8.084;2023-03-25T05:02:52;8.60;99.90
16408;DHT22;8313;49.894;8.084;2023-03-25T05:05:20;8.80;99.90
16408;DHT22;8313;49.894;8.084;2023-03-25T05:07:47;8.60;99.90
16408;DHT22;8313;49.894;8.084;2023-03-25T05:10:19;8.60;99.90
16408;DHT22;8313;49.894;8.084;2023-03-25T05:12:46;8.70;99.90
16408;DHT22;8313;49.894;8.084;2023-03-25T05:15:12;8.70;99.90
16408;DHT22;8313;49.894;8.084;2023-03-25T05:17:38;8.70;99.90
16408;DHT22;8313;49.894;8.084;2023-03-25T05:20:05;8.70;99.90
16408;DHT22;8313;49.894;8.084;2023-03-25T05:22:32;8.60;99.90
16408;DHT22;8313;49.894;8.084;2023-03-25T05:24:58;8.50;99.90
16408;DHT22;8313;49.894;8.084;2023-03-25T05:27:27;8.50;99.90
16408;DHT22;8313;49.894;8.084;2023-03-25T05:29:55;8.40;99.90
16408;DHT22;8313;49.894;8.084;2023-03-25T05:32:23;8.50;99.90
16408;DHT22;8313;49.894;8.084;2023-03-25T05:34:51;8.40;99.90
16408;DHT22;8313;49.894;8.084;2023-03-25T05:37:18;8.40;99.90
16408;DHT22;8313;49.894;8.084;2023-03-25T05:39:43;8.30;99.90
16408;DHT22;8313;49.894;8.084;2023-03-25T05:42:10;8.20;99.90
16408;DHT22;8313;49.894;8.084;2023-03-25T05:44:36;8.30;99.90
16408;DHT22;8313;49.894;8.084;2023-03-25T05:47:03;8.30;99.90
16408;DHT22;8313;49.894;8.084;2023-03-25T05:49:29;8.30;99.90
16408;DHT22;8313;49.894;8.084;2023-03-25T05:51:54;8.40;99.90
16408;DHT22;8313;49.894;8.084;2023-03-25T05:54:23;8.30;99.90
16408;DHT22;8313;49.894;8.084;2023-03-25T05:56:51;8.40;99.90
16408;DHT22;8313;49.894;8.084;2023-03-25T05:59:17;8.40;99.90
16408;DHT22;8313;49.894;8.084;2023-03-25T06:01:44;8.40;99.90
16408;DHT22;8313;49.894;8.084;2023-03-25T06:04:11;8.50;99.90
16408;DHT22;8313;49.894;8.084;2023-03-25T06:06:38;8.60;99.90
16408;DHT22;8313;49.894;8.084;2023-03-25T06:09:05;8.70;99.90
16408;DHT22;8313;49.894;8.084;2023-03-25T06:11:31;8.70;99.90
16408;DHT22;8313;49.894;8.084;2023-03-25T06:14:03;8.70;99.90
16408;DHT22;8313;49.894;8.084;2023-03-25T06:16:30;8.60;99.90
16408;DHT22;8313;49.894;8.084;2023-03-25T06:18:57;8.60;99.90
16408;DHT22;8313;49.894;8.084;2023-03-25T06:21:31;8.70;99.90
16408;DHT22;8313;49.894;8.084;2023-03-25T06:23:58;8.80;99.90
16408;DHT22;8313;49.894;8.084;2023-03-25T06:26:26;8.90;99.90
16408;DHT22;8313;49.894;8.084;2023-03-25T06:28:52;8.70;99.90
16408;DHT22;8313;49.894;8.084;2023-03-25T06:31:23;8.80;99.90
16408;DHT22;8313;49.894;8.084;2023-03-25T06:33:51;8.70;99.90
16408;DHT22;8313;49.894;8.084;2023-03-25T06:36:18;8.70;99.90
16408;DHT22;8313;49.894;8.084;2023-03-25T06:38:49;8.70;99.90
16408;DHT22;8313;49.894;8.084;2023-03-25T06:41:16;8.70;99.90
16408;DHT22;8313;49.894;8.084;2023-03-25T06:43:47;8.70;99.90
16408;DHT22;8313;49.894;8.084;2023-03-25T06:46:31;8.80;99.90
16408;DHT22;8313;49.894;8.084;2023-03-25T06:49:13;8.90;99.90
16408;DHT22;8313;49.894;8.084;2023-03-25T06:51:39;8.70;99.90
16408;DHT22;8313;49.894;8.084;2023-03-25T06:54:05;8.80;99.90
16408;DHT22;8313;49.894;8.084;2023-03-25T06:56:31;8.90;99.90
16408;DHT22;8313;49.894;8.084;2023-03-25T06:58:56;8.90;99.90
16408;DHT22;8313;49.894;8.084;2023-03-25T07:01:22;8.80;99.90
16408;DHT22;8313;49.894;8.084;2023-03-25T07:03:47;9.00;99.90
16408;DHT22;8313;49.894;8.084;2023-03-25T07:06:16;9.00;99.90
16408;DHT22;8313;49.894;8.084;2023-03-25T07:08:43;8.90;99.90
16408;DHT22;8313;49.894;8.084;2023-03-25T07:11:09;9.00;99.90
16408;DHT22;8313;49.894;8.084;2023-03-25T07:13:36;9.00;99.90
16408;DHT22;8313;49.894;8.084;2023-03-25T07:16:02;9.10;99.90
16408;DHT22;8313;49.894;8.084;2023-03-25T07:18:28;9.10;99.90
16408;DHT22;8313;49.894;8.084;2023-03-25T07:20:54;9.10;99.90
16408;DHT22;8313;49.894;8.084;2023-03-25T07:23:19;9.10;99.90
16408;DHT22;8313;49.894;8.084;2023-03-25T07:25:45;9.10;99.90
16408;DHT22;8313;49.894;8.084;2023-03-25T07:28:11;9.10;99.90
16408;DHT22;8313;49.894;8.084;2023-03-25T07:30:42;9.20;99.90
16408;DHT22;8313;49.894;8.084;2023-03-25T07:33:08;9.30;99.90
16408;DHT22;8313;49.894;8.084;2023-03-25T07:35:34;9.30;99.90
16408;DHT22;8313;49.894;8.084;2023-03-25T07:37:59;9.30;99.90
16408;DHT22;8313;49.894;8.084;2023-03-25T07:40:25;9.40;99.90
16408;DHT22;8313;49.894;8.084;2023-03-25T07:42:51;9.40;99.90
16408;DHT22;8313;49.894;8.084;2023-03-25T07:45:34;9.50;99.90
16408;DHT22;8313;49.894;8.084;2023-03-25T07:48:00;9.60;99.90
16408;DHT22;8313;49.894;8.084;2023-03-25T07:50:26;9.70;99.90
16408;DHT22;8313;49.894;8.084;2023-03-25T07:52:52;9.70;99.90
16408;DHT22;8313;49.894;8.084;2023-03-25T07:55:18;9.70;99.90
16408;DHT22;8313;49.894;8.084;2023-03-25T07:57:44;9.80;99.90
16408;DHT22;8313;49.894;8.084;2023-03-25T08:00:10;9.90;99.90
16408;DHT22;8313;49.894;8.084;2023-03-25T08:02:39;10.00;99.90
16408;DHT22;8313;49.894;8.084;2023-03-25T08:05:06;10.10;99.90
16408;DHT22;8313;49.894;8.084;2023-03-25T08:07:32;10.20;99.90
16408;DHT22;8313;49.894;8.084;2023-03-25T08:09:58;10.30;99.90
16408;DHT22;8313;49.894;8.084;2023-03-25T08:12:23;10.40;99.90
16408;DHT22;8313;49.894;8.084;2023-03-25T08:14:49;10.50;99.90
16408;DHT22;8313;49.894;8.084;2023-03-25T08:17:15;10.50;99.90
16408;DHT22;8313;49.894;8.084;2023-03-25T08:19:41;10.60;99.90
16408;DHT22;8313;49.894;8.084;2023-03-25T08:22:07;10.50;99.90
16408;DHT22;8313;49.894;8.084;2023-03-25T08:24:33;10.50;99.90
16408;DHT22;8313;49.894;8.084;2023-03-25T08:26:58;10.50;99.90
16408;DHT22;8313;49.894;8.084;2023-03-25T08:29:26;10.70;99.90
16408;DHT22;8313;49.894;8.084;2023-03-25T08:31:52;10.80;99.90
16408;DHT22;8313;49.894;8.084;2023-03-25T08:34:21;10.80;99.90
16408;DHT22;8313;49.894;8.084;2023-03-25T08:36:47;10.80;99.90
16408;DHT22;8313;49.894;8.084;2023-03-25T08:39:13;10.80;99.90
16408;DHT22;8313;49.894;8.084;2023-03-25T08:41:42;10.80;99.90
16408;DHT22;8313;49.894;8.084;2023-03-25T08:44:08;10.80;99.90
16408;DHT22;8313;49.894;8.084;2023-03-25T08:46:34;10.80;99.90
16408;DHT22;8313;49.894;8.084;2023-03-25T08:49:01;10.80;99.90
16408;DHT22;8313;49.894;8.084;2023-03-25T08:51:27;10.80;99.90
16408;DHT22;8313;49.894;8.084;2023-03-25T08:53:53;10.80;99.90
16408;DHT22;8313;49.894;8.084;2023-03-25T08:56:18;10.80;99.90
16408;DHT22;8313;49.894;8.084;2023-03-25T08:58:44;10.80;99.90
16408;DHT22;8313;49.894;8.084;2023-03-25T09:01:10;10.80;99.90
16408;DHT22;8313;49.894;8.084;2023-03-25T09:03:36;10.80;99.90
16408;DHT22;8313;49.894;8.084;2023-03-25T09:06:07;10.80;99.90
16408;DHT22;8313;49.894;8.084;2023-03-25T09:08:34;10.80;99.90
16408;DHT22;8313;49.894;8.084;2023-03-25T09:11:01;10.80;99.90
16408;DHT22;8313;49.894;8.084;2023-03-25T09:13:27;10.80;99.90
16408;DHT22;8313;49.894;8.084;2023-03-25T09:15:52;10.90;99.90
16408;DHT22;8313;49.894;8.084;2023-03-25T09:18:18;10.90;99.90
16408;DHT22;8313;49.894;8.084;2023-03-25T09:20:44;10.90;99.90
16408;DHT22;8313;49.894;8.084;2023-03-25T09:23:13;10.80;99.90
16408;DHT22;8313;49.894;8.084;2023-03-25T09:25:39;10.80;99.90
16408;DHT22;8313;49.894;8.084;2023-03-25T09:28:05;10.60;99.90
16408;DHT22;8313;49.894;8.084;2023-03-25T09:30:31;10.50;99.90
16408;DHT22;8313;49.894;8.084;2023-03-25T09:32:56;10.50;99.90
16408;DHT22;8313;49.894;8.084;2023-03-25T09:35:22;10.50;99.90
16408;DHT22;8313;49.894;8.084;2023-03-25T09:37:48;10.50;99.90
16408;DHT22;8313;49.894;8.084;2023-03-25T09:40:15;10.50;99.90
16408;DHT22;8313;49.894;8.084;2023-03-25T09:48:03;10.60;99.90
16408;DHT22;8313;49.894;8.084;2023-03-25T09:50:33;10.60;99.90
16408;DHT22;8313;49.894;8.084;2023-03-25T09:53:06;10.50;99.90
16408;DHT22;8313;49.894;8.084;2023-03-25T09:55:41;10.30;99.90
16408;DHT22;8313;49.894;8.084;2023-03-25T10:00:53;10.20;99.90
16408;DHT22;8313;49.894;8.084;2023-03-25T10:03:29;10.20;99.90
16408;DHT22;8313;49.894;8.084;2023-03-25T10:06:15;10.10;99.90
16408;DHT22;8313;49.894;8.084;2023-03-25T10:11:44;9.70;99.90
16408;DHT22;8313;49.894;8.084;2023-03-25T10:17:15;9.80;99.90
16408;DHT22;8313;49.894;8.084;2023-03-25T10:19:46;10.00;99.90
16408;DHT22;8313;49.894;8.084;2023-03-25T10:22:35;10.20;99.90
16408;DHT22;8313;49.894;8.084;2023-03-25T10:25:09;10.20;99.90
16408;DHT22;8313;49.894;8.084;2023-03-25T10:27:49;10.20;99.90
16408;DHT22;8313;49.894;8.084;2023-03-25T10:30:31;10.20;99.90
16408;DHT22;8313;49.894;8.084;2023-03-25T10:33:04;10.30;99.90
16408;DHT22;8313;49.894;8.084;2023-03-25T10:38:03;10.80;99.90
16408;DHT22;8313;49.894;8.084;2023-03-25T10:40:42;10.90;99.90
16408;DHT22;8313;49.894;8.084;2023-03-25T10:43:33;11.10;99.90
16408;DHT22;8313;49.894;8.084;2023-03-25T10:46:17;11.30;99.90
16408;DHT22;8313;49.894;8.084;2023-03-25T10:48:45;11.40;99.90
16408;DHT22;8313;49.894;8.084;2023-03-25T10:51:18;11.60;99.90
16408;DHT22;8313;49.894;8.084;2023-03-25T10:53:48;11.80;99.90
16408;DHT22;8313;49.894;8.084;2023-03-25T10:56:43;11.90;99.90
16408;DHT22;8313;49.894;8.084;2023-03-25T11:01:55;12.30;99.90
16408;DHT22;8313;49.894;8.084;2023-03-25T11:04:33;12.20;99.90
16408;DHT22;8313;49.894;8.084;2023-03-25T11:06:59;12.30;99.90
16408;DHT22;8313;49.894;8.084;2023-03-25T11:09:30;12.70;99.90
16408;DHT22;8313;49.894;8.084;2023-03-25T11:12:00;12.80;99.90
16408;DHT22;8313;49.894;8.084;2023-03-25T11:14:28;13.00;99.90
16408;DHT22;8313;49.894;8.084;2023-03-25T11:16:58;13.10;99.90
16408;DHT22;8313;49.894;8.084;2023-03-25T11:24:48;13.00;99.90
16408;DHT22;8313;49.894;8.084;2023-03-25T11:27:21;13.10;99.90
16408;DHT22;8313;49.894;8.084;2023-03-25T11:30:06;13.40;99.90
16408;DHT22;8313;49.894;8.084;2023-03-25T11:32:39;13.50;99.90
16408;DHT22;8313;49.894;8.084;2023-03-25T11:35:29;13.40;99.90
16408;DHT22;8313;49.894;8.084;2023-03-25T11:38:00;13.40;99.90
16408;DHT22;8313;49.894;8.084;2023-03-25T11:40:28;13.40;99.90
16408;DHT22;8313;49.894;8.084;2023-03-25T11:42:56;13.40;99.90
16408;DHT22;8313;49.894;8.084;2023-03-25T11:45:36;13.50;99.90
16408;DHT22;8313;49.894;8.084;2023-03-25T11:48:14;13.70;99.90
16408;DHT22;8313;49.894;8.084;2023-03-25T11:53:23;14.10;99.90
16408;DHT22;8313;49.894;8.084;2023-03-25T11:55:55;14.10;99.90
16408;DHT22;8313;49.894;8.084;2023-03-25T11:58:26;14.10;99.90
16408;DHT22;8313;49.894;8.084;2023-03-25T12:01:03;14.20;99.90
16408;DHT22;8313;49.894;8.084;2023-03-25T12:03:32;14.00;99.90
16408;DHT22;8313;49.894;8.084;2023-03-25T12:08:52;13.70;99.90
16408;DHT22;8313;49.894;8.084;2023-03-25T12:20:04;14.10;99.90
16408;DHT22;8313;49.894;8.084;2023-03-25T12:23:09;14.10;99.90
16408;DHT22;8313;49.894;8.084;2023-03-25T12:25:46;14.00;99.90
16408;DHT22;8313;49.894;8.084;2023-03-25T12:28:35;13.80;99.90
16408;DHT22;8313;49.894;8.084;2023-03-25T12:33:54;13.10;99.90
16408;DHT22;8313;49.894;8.084;2023-03-25T12:41:39;12.10;99.90
16408;DHT22;8313;49.894;8.084;2023-03-25T12:44:36;12.20;99.90
16408;DHT22;8313;49.894;8.084;2023-03-25T12:50:10;12.70;99.90
16408;DHT22;8313;49.894;8.084;2023-03-25T12:52:38;13.00;99.90
16408;DHT22;8313;49.894;8.084;2023-03-25T12:55:16;13.10;99.90
16408;DHT22;8313;49.894;8.084;2023-03-25T13:00:55;13.50;99.90
16408;DHT22;8313;49.894;8.084;2023-03-25T13:11:58;13.70;99.90
16408;DHT22;8313;49.894;8.084;2023-03-25T13:14:35;13.50;99.90
16408;DHT22;8313;49.894;8.084;2023-03-25T13:17:07;13.60;99.90
16408;DHT22;8313;49.894;8.084;2023-03-25T13:19:36;13.60;99.90
16408;DHT22;8313;49.894;8.084;2023-03-25T13:22:22;13.50;99.90
16408;DHT22;8313;49.894;8.084;2023-03-25T13:25:00;13.60;99.90
16408;DHT22;8313;49.894;8.084;2023-03-25T13:27:38;13.50;99.90
16408;DHT22;8313;49.894;8.084;2023-03-25T13:30:13;13.50;99.90
16408;DHT22;8313;49.894;8.084;2023-03-25T13:32:47;13.50;99.90
16408;DHT22;8313;49.894;8.084;2023-03-25T13:35:41;13.70;99.90
16408;DHT22;8313;49.894;8.084;2023-03-25T13:38:09;13.60;99.90
16408;DHT22;8313;49.894;8.084;2023-03-25T13:40:53;13.50;99.90
16408;DHT22;8313;49.894;8.084;2023-03-25T13:46:12;13.30;99.90
16408;DHT22;8313;49.894;8.084;2023-03-25T13:48:50;13.20;99.90
16408;DHT22;8313;49.894;8.084;2023-03-25T13:51:17;13.10;99.90
16408;DHT22;8313;49.894;8.084;2023-03-25T13:54:05;13.00;99.90
16408;DHT22;8313;49.894;8.084;2023-03-25T13:59:49;13.00;99.90
16408;DHT22;8313;49.894;8.084;2023-03-25T14:13:34;13.30;99.90
16408;DHT22;8313;49.894;8.084;2023-03-25T14:16:13;13.40;99.90
16408;DHT22;8313;49.894;8.084;2023-03-25T14:18:46;13.30;99.90
16408;DHT22;8313;49.894;8.084;2023-03-25T14:26:49;13.30;99.90
16408;DHT22;8313;49.894;8.084;2023-03-25T14:34:42;13.20;99.90
16408;DHT22;8313;49.894;8.084;2023-03-25T14:37:13;13.10;99.90
16408;DHT22;8313;49.894;8.084;2023-03-25T14:39:39;13.10;99.90
16408;DHT22;8313;49.894;8.084;2023-03-25T14:44:42;13.10;99.90
16408;DHT22;8313;49.894;8.084;2023-03-25T14:52:49;13.10;99.90
16408;DHT22;8313;49.894;8.084;2023-03-25T14:55:25;13.10;99.90
16408;DHT22;8313;49.894;8.084;2023-03-25T14:57:57;13.10;99.90
16408;DHT22;8313;49.894;8.084;2023-03-25T15:00:31;13.00;99.90
16408;DHT22;8313;49.894;8.084;2023-03-25T15:03:07;13.10;99.90
16408;DHT22;8313;49.894;8.084;2023-03-25T15:05:36;13.10;99.90
16408;DHT22;8313;49.894;8.084;2023-03-25T15:10:38;13.10;99.90
16408;DHT22;8313;49.894;8.084;2023-03-25T15:13:20;13.20;99.90
16408;DHT22;8313;49.894;8.084;2023-03-25T15:23:44;13.20;99.90
16408;DHT22;8313;49.894;8.084;2023-03-25T15:26:26;13.20;99.90
16408;DHT22;8313;49.894;8.084;2023-03-25T15:31:35;13.00;99.90
16408;DHT22;8313;49.894;8.084;2023-03-25T15:39:50;12.90;99.90
16408;DHT22;8313;49.894;8.084;2023-03-25T15:56:24;12.90;99.90
16408;DHT22;8313;49.894;8.084;2023-03-25T15:59:02;13.00;99.90
16408;DHT22;8313;49.894;8.084;2023-03-25T16:01:32;13.00;99.90
16408;DHT22;8313;49.894;8.084;2023-03-25T16:06:45;13.10;99.90
16408;DHT22;8313;49.894;8.084;2023-03-25T16:09:21;13.10;99.90
16408;DHT22;8313;49.894;8.084;2023-03-25T16:11:49;13.20;99.90
16408;DHT22;8313;49.894;8.084;2023-03-25T16:14:17;13.20;99.90
16408;DHT22;8313;49.894;8.084;2023-03-25T16:19:17;13.20;99.90
16408;DHT22;8313;49.894;8.084;2023-03-25T16:21:49;13.30;99.90
16408;DHT22;8313;49.894;8.084;2023-03-25T16:24:16;13.30;99.90
16408;DHT22;8313;49.894;8.084;2023-03-25T16:26:46;13.30;99.90
16408;DHT22;8313;49.894;8.084;2023-03-25T16:29:20;13.30;99.90
16408;DHT22;8313;49.894;8.084;2023-03-25T16:31:57;13.40;99.90
16408;DHT22;8313;49.894;8.084;2023-03-25T16:34:25;13.30;99.90
16408;DHT22;8313;49.894;8.084;2023-03-25T16:36:53;13.30;99.90
16408;DHT22;8313;49.894;8.084;2023-03-25T16:39:21;13.20;99.90
16408;DHT22;8313;49.894;8.084;2023-03-25T16:41:51;13.10;99.90
16408;DHT22;8313;49.894;8.084;2023-03-25T16:44:23;13.00;99.90
16408;DHT22;8313;49.894;8.084;2023-03-25T16:46:51;13.00;99.90
16408;DHT22;8313;49.894;8.084;2023-03-25T16:49:25;12.90;99.90
16408;DHT22;8313;49.894;8.084;2023-03-25T16:51:52;12.90;99.90
16408;DHT22;8313;49.894;8.084;2023-03-25T16:54:33;12.80;99.90
16408;DHT22;8313;49.894;8.084;2023-03-25T16:57:00;12.80;99.90
16408;DHT22;8313;49.894;8.084;2023-03-25T16:59:27;12.80;99.90
16408;DHT22;8313;49.894;8.084;2023-03-25T17:01:58;12.80;99.90
16408;DHT22;8313;49.894;8.084;2023-03-25T17:07:06;12.70;99.90
16408;DHT22;8313;49.894;8.084;2023-03-25T17:09:34;12.60;99.90
16408;DHT22;8313;49.894;8.084;2023-03-25T17:12:09;12.60;99.90
16408;DHT22;8313;49.894;8.084;2023-03-25T17:14:39;12.60;99.90
16408;DHT22;8313;49.894;8.084;2023-03-25T17:17:12;12.60;99.90
16408;DHT22;8313;49.894;8.084;2023-03-25T17:19:47;12.60;99.90
16408;DHT22;8313;49.894;8.084;2023-03-25T17:22:24;12.60;99.90
16408;DHT22;8313;49.894;8.084;2023-03-25T17:25:10;12.30;99.90
16408;DHT22;8313;49.894;8.084;2023-03-25T17:27:38;12.10;99.90
16408;DHT22;8313;49.894;8.084;2023-03-25T17:32:42;11.80;99.90
16408;DHT22;8313;49.894;8.084;2023-03-25T17:35:16;11.80;99.90
16408;DHT22;8313;49.894;8.084;2023-03-25T17:37:46;11.60;99.90
16408;DHT22;8313;49.894;8.084;2023-03-25T17:40:20;11.70;99.90
16408;DHT22;8313;49.894;8.084;2023-03-25T17:42:46;11.50;99.90
16408;DHT22;8313;49.894;8.084;2023-03-25T17:45:14;11.50;99.90
16408;DHT22;8313;49.894;8.084;2023-03-25T17:47:41;11.30;99.90
16408;DHT22;8313;49.894;8.084;2023-03-25T17:50:18;11.20;99.90
16408;DHT22;8313;49.894;8.084;2023-03-25T17:52:44;11.10;99.90
16408;DHT22;8313;49.894;8.084;2023-03-25T17:55:10;11.00;99.90
16408;DHT22;8313;49.894;8.084;2023-03-25T17:57:36;10.90;99.90
16408;DHT22;8313;49.894;8.084;2023-03-25T18:00:05;11.00;99.90
16408;DHT22;8313;49.894;8.084;2023-03-25T18:02:39;10.90;99.90
16408;DHT22;8313;49.894;8.084;2023-03-25T18:05:06;10.80;99.90
16408;DHT22;8313;49.894;8.084;2023-03-25T18:07:32;10.70;99.90
16408;DHT22;8313;49.894;8.084;2023-03-25T18:09:58;10.70;99.90
16408;DHT22;8313;49.894;8.084;2023-03-25T18:12:24;10.60;99.90
16408;DHT22;8313;49.894;8.084;2023-03-25T18:14:49;10.60;99.90
16408;DHT22;8313;49.894;8.084;2023-03-25T18:17:15;10.40;99.90
16408;DHT22;8313;49.894;8.084;2023-03-25T18:19:41;10.30;99.90
16408;DHT22;8313;49.894;8.084;2023-03-25T18:22:08;10.30;99.90
16408;DHT22;8313;49.894;8.084;2023-03-25T18:24:34;10.30;99.90
16408;DHT22;8313;49.894;8.084;2023-03-25T18:27:00;10.20;99.90
16408;DHT22;8313;49.894;8.084;2023-03-25T18:29:29;10.20;99.90
16408;DHT22;8313;49.894;8.084;2023-03-25T18:31:55;10.10;99.90
16408;DHT22;8313;49.894;8.084;2023-03-25T18:34:22;10.10;99.90
16408;DHT22;8313;49.894;8.084;2023-03-25T18:36:51;10.00;99.90
16408;DHT22;8313;49.894;8.084;2023-03-25T18:39:21;10.00;99.90
16408;DHT22;8313;49.894;8.084;2023-03-25T18:41:47;10.00;99.90
16408;DHT22;8313;49.894;8.084;2023-03-25T18:44:13;10.20;99.90
16408;DHT22;8313;49.894;8.084;2023-03-25T18:46:39;10.10;99.90
16408;DHT22;8313;49.894;8.084;2023-03-25T18:49:11;10.00;99.90
16408;DHT22;8313;49.894;8.084;2023-03-25T18:51:37;9.90;99.90
16408;DHT22;8313;49.894;8.084;2023-03-25T18:54:03;9.90;99.90
16408;DHT22;8313;49.894;8.084;2023-03-25T18:56:29;9.90;99.90
16408;DHT22;8313;49.894;8.084;2023-03-25T18:58:55;9.80;99.90
16408;DHT22;8313;49.894;8.084;2023-03-25T19:01:21;9.80;99.90
16408;DHT22;8313;49.894;8.084;2023-03-25T19:03:47;9.70;99.90
16408;DHT22;8313;49.894;8.084;2023-03-25T19:06:15;9.70;99.90
16408;DHT22;8313;49.894;8.084;2023-03-25T19:08:42;9.70;99.90
16408;DHT22;8313;49.894;8.084;2023-03-25T19:11:08;9.70;99.90
16408;DHT22;8313;49.894;8.084;2023-03-25T19:13:35;9.60;99.90
16408;DHT22;8313;49.894;8.084;2023-03-25T19:16:00;9.50;99.90
16408;DHT22;8313;49.894;8.084;2023-03-25T19:18:30;9.60;99.90
16408;DHT22;8313;49.894;8.084;2023-03-25T19:20:56;9.60;99.90